Airfield :
LOGIN :

Register | Disclaimer

   EN    FR    IT 

 










Legend :    VFR   Marginal VFR   IFR   Intensive IFR   Very Intensive IFR
Visi :
Ceiling :
>= 8 km
>= 3000ft
5 to 8 km
1000 to 3000 ft
1500m to 5 km
500 to 1000 ft
800 to 1500m
200 to 500 ft
< 800m
< 200 ft
Symbols :   Thunderstorms  Fog  Heavy snow  Heavy precipitations  Wind > 20 kt
SIGMETs :     Misc.  Thunderstorms  Icing  Turbulence  Mountain Waves  Volcanic Ashes







- Airport Elevation : -11 ft
- IATA code : AMS


EHAM - Amsterdam Schiphol

CURRENT METAR :
  • 240625Z 36007KT 340V040 9999 FEW023 14/09 Q1024 NOSIG

EXPIRED METARs :
  • 240555Z 01005KT 340V050 9999 FEW020 14/10 Q1024 NOSIG
  • 240525Z 36003KT 330V040 9999 FEW020 13/10 Q1024 NOSIG
  • 240455Z 36003KT 330V030 9999 FEW025 12/10 Q1024 NOSIG
  • 240425Z 35004KT 9999 FEW025 11/09 Q1023 NOSIG
  • 240355Z 35004KT CAVOK 10/09 Q1023 NOSIG

TAF TAF EHAM
Valid from the 24 at 06:00 until the 25 at 12:00 UTC


240438Z 2406/2512 34005KT 9999 FEW025
BECMG 2407/2410 33012KT
BECMG 2418/2421 34006KT
TEMPO 2421/2507 BKN018
PROB30
TEMPO 2501/2505 6000 SCT007 BKN012
BECMG 2508/2511 32010KT
No reported NOTAMs for that airfield.



MET'MAP, your aeronautical weather chart ! - Copyright ORBIFLY December 2007 - Disclaimer

ORBIFLY MET'MAP TEAM :

Programming & Development : Alexandra Zaïnal
Concept & Development : Baudouin d'Aumeries
Co-Development & Prog : Marc-Olivier Méhu
Technical & hardware support : Manuel Goepfert

Contact : metmap@orbifly.com




SOURCES & CREDITS :

   NOAA